Time;durP1;ratioP1;P1;durP2;ratioP2;P2;SDS_P1;SDS_P2;PMS_P1;PMS_P2;Temp;Humidity;BMP_temperature;BMP_pressure;BME280_temperature;BME280_humidity;BME280_pressure;Samples;Min_cycle;Max_cycle;Signal;HPM_P1;HPM_P2
2023/10/20 00:02:05;;;;;;;20.83;16.43;;;;;;;;;;5054008;28;20468;-83
2023/10/20 00:04:33;;;;;;;23.27;17.20;;;;;;;;;;5054593;28;20452;-84
2023/10/20 00:06:59;;;;;;;20.70;16.27;;;;;;;;;;5053884;28;20472;-83
2023/10/20 00:09:26;;;;;;;24.00;18.07;;;;;;;;;;5054385;28;20452;-83
2023/10/20 00:11:52;;;;;;;20.00;15.93;;;;;;;;;;5052389;28;20472;-83
2023/10/20 00:14:19;;;;;;;24.00;18.00;;;;;;;;;;5053030;28;20463;-83
2023/10/20 00:16:46;;;;;;;21.63;16.67;;;;;;;;;;5053995;28;20474;-83
2023/10/20 00:19:13;;;;;;;21.93;16.67;;;;;;;;;;5052972;28;20866;-83
2023/10/20 00:21:40;;;;;;;21.97;17.40;;;;;;;;;;5052599;28;20502;-84
2023/10/20 00:24:06;;;;;;;25.40;17.00;;;;;;;;;;5054969;28;20464;-83
2023/10/20 00:26:34;;;;;;;21.80;16.90;;;;;;;;;;5053434;28;20491;-83
2023/10/20 00:29:00;;;;;;;21.07;17.03;;;;;;;;;;5053967;28;20452;-83
2023/10/20 00:31:29;;;;;;;23.70;18.87;;;;;;;;;;5054443;28;20830;-83
2023/10/20 00:33:55;;;;;;;24.77;17.93;;;;;;;;;;5052967;28;20471;-83
2023/10/20 00:36:23;;;;;;;20.57;17.27;;;;;;;;;;5053833;28;20476;-84
2023/10/20 00:38:50;;;;;;;26.47;17.17;;;;;;;;;;5053024;28;20853;-83
2023/10/20 00:41:16;;;;;;;23.00;17.33;;;;;;;;;;5053639;28;20993;-84
2023/10/20 00:43:43;;;;;;;26.63;18.73;;;;;;;;;;5053984;28;20464;-83
2023/10/20 00:46:10;;;;;;;24.23;17.13;;;;;;;;;;5053613;28;20491;-83
2023/10/20 00:48:36;;;;;;;22.97;17.73;;;;;;;;;;5053703;28;20835;-83
2023/10/20 00:51:05;;;;;;;23.27;17.40;;;;;;;;;;5053968;28;20494;-83
2023/10/20 00:53:34;;;;;;;23.20;16.10;;;;;;;;;;5057820;28;20459;-83
2023/10/20 00:56:01;;;;;;;24.50;17.43;;;;;;;;;;5057602;28;20476;-83
2023/10/20 00:58:28;;;;;;;23.90;18.93;;;;;;;;;;5056674;28;20436;-83
2023/10/20 01:00:55;;;;;;;22.30;15.97;;;;;;;;;;5057142;28;20483;-83
2023/10/20 01:03:22;;;;;;;21.43;16.83;;;;;;;;;;5057400;28;20539;-84
2023/10/20 01:05:48;;;;;;;21.27;17.67;;;;;;;;;;5055318;28;20462;-84
2023/10/20 01:08:15;;;;;;;23.50;18.90;;;;;;;;;;5057191;28;20976;-83
2023/10/20 01:10:43;;;;;;;24.33;18.53;;;;;;;;;;5055965;28;20521;-84
2023/10/20 01:13:10;;;;;;;20.60;17.43;;;;;;;;;;5039302;28;20444;-83
2023/10/20 01:15:36;;;;;;;21.63;17.00;;;;;;;;;;5056880;28;20460;-85
2023/10/20 01:18:03;;;;;;;21.03;16.37;;;;;;;;;;5057317;28;20439;-84
2023/10/20 01:20:29;;;;;;;18.30;15.10;;;;;;;;;;5057171;28;20471;-84
2023/10/20 01:22:58;;;;;;;19.47;15.90;;;;;;;;;;5056935;28;20447;-84
2023/10/20 01:25:26;;;;;;;20.93;14.93;;;;;;;;;;5055751;28;20494;-83
2023/10/20 01:27:53;;;;;;;19.47;15.70;;;;;;;;;;5056786;28;20440;-82
2023/10/20 01:30:19;;;;;;;17.10;15.27;;;;;;;;;;5056689;28;20895;-82
2023/10/20 01:32:46;;;;;;;19.20;15.70;;;;;;;;;;5057256;28;20482;-84
2023/10/20 01:35:13;;;;;;;18.23;14.60;;;;;;;;;;5055876;28;20480;-83
2023/10/20 01:37:40;;;;;;;15.80;13.80;;;;;;;;;;5056960;28;20479;-84
2023/10/20 01:40:09;;;;;;;19.67;16.77;;;;;;;;;;5055913;28;20443;-84
2023/10/20 01:42:37;;;;;;;17.90;14.23;;;;;;;;;;5055973;28;20458;-84
2023/10/20 01:45:04;;;;;;;17.50;14.23;;;;;;;;;;5057272;28;20464;-84
2023/10/20 01:47:31;;;;;;;18.50;14.13;;;;;;;;;;5056169;28;20890;-83
2023/10/20 01:49:57;;;;;;;16.33;12.77;;;;;;;;;;5056604;28;20440;-84
2023/10/20 01:52:24;;;;;;;17.47;14.23;;;;;;;;;;5056060;28;20479;-83
2023/10/20 01:54:50;;;;;;;14.60;11.80;;;;;;;;;;5056613;28;20847;-84
2023/10/20 01:57:16;;;;;;;14.40;12.73;;;;;;;;;;5056043;28;20468;-84
2023/10/20 01:59:44;;;;;;;13.87;12.40;;;;;;;;;;5055366;28;20803;-84
2023/10/20 02:02:11;;;;;;;15.40;11.97;;;;;;;;;;5054417;28;20486;-83
2023/10/20 02:04:37;;;;;;;16.30;12.90;;;;;;;;;;5056374;28;20517;-84
2023/10/20 02:07:04;;;;;;;16.00;13.50;;;;;;;;;;5055956;28;20460;-83
2023/10/20 02:09:31;;;;;;;14.00;10.90;;;;;;;;;;5055914;28;20440;-84
2023/10/20 02:11:58;;;;;;;17.13;13.93;;;;;;;;;;5055766;28;20467;-83
2023/10/20 02:14:24;;;;;;;15.23;12.47;;;;;;;;;;5055897;28;20463;-83
2023/10/20 02:16:52;;;;;;;12.73;11.43;;;;;;;;;;5055848;28;20812;-83
2023/10/20 02:19:19;;;;;;;12.13;10.83;;;;;;;;;;5055290;28;20436;-84
2023/10/20 02:21:47;;;;;;;13.20;11.23;;;;;;;;;;5038463;28;20472;-83
2023/10/20 02:24:13;;;;;;;10.57;9.47;;;;;;;;;;5056362;28;20464;-83
2023/10/20 02:26:40;;;;;;;11.50;10.30;;;;;;;;;;5054941;28;20478;-84
2023/10/20 02:29:07;;;;;;;10.57;9.50;;;;;;;;;;5055820;28;20459;-84
2023/10/20 02:31:33;;;;;;;10.80;9.73;;;;;;;;;;5053910;28;20483;-83
2023/10/20 02:34:01;;;;;;;9.20;8.30;;;;;;;;;;5038193;28;20510;-83
2023/10/20 02:36:27;;;;;;;10.17;9.23;;;;;;;;;;5054157;28;20472;-83
2023/10/20 02:38:55;;;;;;;9.90;8.97;;;;;;;;;;5054606;28;20816;-83
2023/10/20 02:41:21;;;;;;;9.17;8.27;;;;;;;;;;5055460;28;20530;-83
2023/10/20 02:43:47;;;;;;;10.30;9.23;;;;;;;;;;5055343;28;20826;-83
2023/10/20 02:46:15;;;;;;;11.00;8.93;;;;;;;;;;5055392;28;20993;-85
2023/10/20 02:48:41;;;;;;;8.83;7.97;;;;;;;;;;5054205;28;20452;-83
2023/10/20 02:51:12;;;;;;;8.97;8.17;;;;;;;;;;5055277;28;20468;-84
2023/10/20 02:53:39;;;;;;;9.00;7.87;;;;;;;;;;5055165;28;20460;-83
2023/10/20 02:56:10;;;;;;;9.20;8.40;;;;;;;;;;5054844;28;21060;-83
2023/10/20 02:58:37;;;;;;;8.27;7.47;;;;;;;;;;5055652;28;20832;-83
2023/10/20 03:01:05;;;;;;;8.10;7.30;;;;;;;;;;5055331;28;20472;-84
2023/10/20 03:03:32;;;;;;;8.00;7.20;;;;;;;;;;5055930;28;20459;-83
2023/10/20 03:05:58;;;;;;;7.33;6.73;;;;;;;;;;5054915;28;20472;-84
2023/10/20 03:08:26;;;;;;;6.63;5.97;;;;;;;;;;5053819;28;20505;-84
2023/10/20 03:10:52;;;;;;;7.03;6.37;;;;;;;;;;5054865;28;20474;-83
2023/10/20 03:13:19;;;;;;;8.13;7.40;;;;;;;;;;5054501;28;20447;-84
2023/10/20 03:15:47;;;;;;;6.67;6.07;;;;;;;;;;5054215;28;20467;-83
2023/10/20 03:18:16;;;;;;;7.90;6.33;;;;;;;;;;5054780;28;20440;-84
2023/10/20 03:20:43;;;;;;;6.80;6.20;;;;;;;;;;5053271;28;20470;-84
2023/10/20 03:23:10;;;;;;;7.90;6.20;;;;;;;;;;5053570;28;20436;-84
2023/10/20 03:25:37;;;;;;;7.80;7.10;;;;;;;;;;5054659;28;20855;-83
2023/10/20 03:28:05;;;;;;;6.27;5.67;;;;;;;;;;5055382;28;20793;-83
2023/10/20 03:30:31;;;;;;;6.67;6.07;;;;;;;;;;5054834;28;20455;-83
2023/10/20 03:32:58;;;;;;;7.80;7.10;;;;;;;;;;5055077;28;20440;-83
2023/10/20 03:35:27;;;;;;;7.00;5.70;;;;;;;;;;5053897;28;20464;-83
2023/10/20 03:37:54;;;;;;;6.97;6.37;;;;;;;;;;5054433;28;20965;-84
2023/10/20 03:40:24;;;;;;;6.23;5.50;;;;;;;;;;5054876;28;20490;-83
2023/10/20 03:42:51;;;;;;;5.87;5.30;;;;;;;;;;5054853;28;20436;-83
2023/10/20 03:45:18;;;;;;;7.83;4.90;;;;;;;;;;5054619;28;20559;-84
2023/10/20 03:47:49;;;;;;;5.70;5.20;;;;;;;;;;5054530;28;20539;-84
2023/10/20 03:50:16;;;;;;;6.33;5.83;;;;;;;;;;5054069;28;20985;-83
2023/10/20 03:52:44;;;;;;;5.90;5.30;;;;;;;;;;5054548;28;20796;-83
2023/10/20 03:55:13;;;;;;;6.77;6.10;;;;;;;;;;5054395;28;20463;-84
2023/10/20 03:57:40;;;;;;;6.10;5.50;;;;;;;;;;5055021;28;20524;-84
2023/10/20 04:00:17;;;;;;;5.93;5.43;;;;;;;;;;5054534;28;20475;-84
2023/10/20 04:02:46;;;;;;;6.00;5.03;;;;;;;;;;5037345;28;20490;-84
2023/10/20 04:05:13;;;;;;;4.70;4.30;;;;;;;;;;5054015;28;20529;-84
2023/10/20 04:07:39;;;;;;;4.97;4.57;;;;;;;;;;5053255;28;20486;-83
2023/10/20 04:10:07;;;;;;;4.90;4.40;;;;;;;;;;5054740;28;20444;-83
2023/10/20 04:12:33;;;;;;;4.10;3.70;;;;;;;;;;5054214;28;20471;-82
2023/10/20 04:15:00;;;;;;;4.27;3.80;;;;;;;;;;5054790;28;20463;-83
2023/10/20 04:17:28;;;;;;;4.60;4.20;;;;;;;;;;5052890;28;20476;-83
2023/10/20 04:19:55;;;;;;;3.60;3.30;;;;;;;;;;5054144;28;20450;-83
2023/10/20 04:22:23;;;;;;;4.17;3.10;;;;;;;;;;5054484;28;20555;-83
2023/10/20 04:24:49;;;;;;;2.13;2.03;;;;;;;;;;5053010;28;20463;-83
2023/10/20 04:27:22;;;;;;;2.70;2.50;;;;;;;;;;5056872;28;20533;-83
2023/10/20 04:41:51;;;;;;;2.93;2.73;;;;;;;;;;5058370;28;20481;-83
2023/10/20 04:43:41;;;;;;;4.73;2.47;;;;;;;;;;5058196;28;20873;-83
2023/10/20 04:54:22;;;;;;;4.77;2.40;;;;;;;;;;5055762;28;20458;-84
2023/10/20 04:57:19;;;;;;;2.40;2.20;;;;;;;;;;5057068;28;20529;-84
2023/10/20 04:59:46;;;;;;;2.87;2.63;;;;;;;;;;5057927;28;20439;-82
2023/10/20 05:02:23;;;;;;;3.33;3.00;;;;;;;;;;5055957;28;20475;-83
2023/10/20 05:04:52;;;;;;;2.57;2.37;;;;;;;;;;5057327;28;20509;-83
2023/10/20 05:07:18;;;;;;;2.50;2.30;;;;;;;;;;5056581;28;20563;-84
2023/10/20 05:09:50;;;;;;;3.17;2.77;;;;;;;;;;5057209;28;20444;-84
2023/10/20 05:12:16;;;;;;;3.07;2.70;;;;;;;;;;5056709;28;20474;-83
2023/10/20 05:14:42;;;;;;;3.27;2.83;;;;;;;;;;5055149;28;20467;-82
2023/10/20 05:17:10;;;;;;;2.40;2.20;;;;;;;;;;5055987;28;20487;-83
2023/10/20 05:19:37;;;;;;;2.90;2.40;;;;;;;;;;5039558;28;20448;-83
2023/10/20 05:22:04;;;;;;;3.40;2.53;;;;;;;;;;5056807;28;20478;-83
2023/10/20 05:24:31;;;;;;;2.80;2.60;;;;;;;;;;5056995;28;20475;-83
2023/10/20 05:26:57;;;;;;;3.00;2.70;;;;;;;;;;5055112;28;20468;-83
2023/10/20 05:29:24;;;;;;;2.60;2.33;;;;;;;;;;5056760;28;20436;-83
2023/10/20 05:31:50;;;;;;;3.10;2.70;;;;;;;;;;5054771;28;20476;-84
2023/10/20 05:34:17;;;;;;;3.77;2.77;;;;;;;;;;5056257;28;21064;-84
2023/10/20 05:36:44;;;;;;;2.80;2.60;;;;;;;;;;5054174;28;20476;-84
2023/10/20 05:39:13;;;;;;;5.10;3.07;;;;;;;;;;5056355;28;20471;-84
2023/10/20 05:41:40;;;;;;;3.80;3.00;;;;;;;;;;5055571;28;20476;-84
2023/10/20 05:44:11;;;;;;;5.97;3.40;;;;;;;;;;5055791;28;20987;-84
2023/10/20 05:46:40;;;;;;;4.27;3.60;;;;;;;;;;5055686;28;20490;-84
2023/10/20 05:49:08;;;;;;;4.27;3.10;;;;;;;;;;5056456;28;20480;-84
2023/10/20 05:51:34;;;;;;;3.77;2.90;;;;;;;;;;5055594;28;20517;-83
2023/10/20 05:54:01;;;;;;;3.80;2.63;;;;;;;;;;5056174;28;20468;-84
2023/10/20 05:56:28;;;;;;;3.70;3.30;;;;;;;;;;5055784;28;20479;-83
2023/10/20 05:58:55;;;;;;;3.10;2.80;;;;;;;;;;5055872;28;20906;-84
2023/10/20 06:01:22;;;;;;;4.37;3.73;;;;;;;;;;5053504;28;20475;-82
2023/10/20 06:03:49;;;;;;;4.37;3.90;;;;;;;;;;5055307;28;20456;-82
2023/10/20 06:06:16;;;;;;;4.10;3.70;;;;;;;;;;5054678;28;21005;-82
2023/10/20 06:08:42;;;;;;;4.63;3.33;;;;;;;;;;5055428;28;20440;-81
2023/10/20 06:11:08;;;;;;;7.67;4.00;;;;;;;;;;5054514;28;20475;-82
2023/10/20 06:13:36;;;;;;;5.00;3.70;;;;;;;;;;5055054;28;20462;-83
2023/10/20 06:16:09;;;;;;;6.00;3.90;;;;;;;;;;5054893;28;20490;-82
2023/10/20 06:18:36;;;;;;;4.53;3.97;;;;;;;;;;5054903;28;20447;-82
2023/10/20 06:21:02;;;;;;;7.53;4.37;;;;;;;;;;5054323;28;20510;-82
2023/10/20 06:23:29;;;;;;;5.17;4.20;;;;;;;;;;5054872;28;20467;-82
2023/10/20 06:25:56;;;;;;;4.90;4.30;;;;;;;;;;5054669;28;20478;-82
2023/10/20 06:28:22;;;;;;;5.43;4.40;;;;;;;;;;5054945;28;20436;-82
2023/10/20 06:30:51;;;;;;;5.67;4.30;;;;;;;;;;5054271;28;20476;-81
2023/10/20 06:33:18;;;;;;;4.63;4.23;;;;;;;;;;5053541;28;20447;-82
2023/10/20 06:35:53;;;;;;;5.50;4.33;;;;;;;;;;5054312;28;20470;-81
2023/10/20 06:38:25;;;;;;;4.37;3.97;;;;;;;;;;5054865;28;20460;-82
2023/10/20 06:40:51;;;;;;;5.10;3.77;;;;;;;;;;5054606;28;20483;-82
2023/10/20 06:43:19;;;;;;;4.43;3.80;;;;;;;;;;5054378;28;20961;-82
2023/10/20 06:45:46;;;;;;;4.70;4.30;;;;;;;;;;5054229;28;20554;-82
2023/10/20 06:48:14;;;;;;;4.83;4.33;;;;;;;;;;5052557;28;21011;-82
2023/10/20 06:50:42;;;;;;;5.37;4.73;;;;;;;;;;5053602;28;20470;-81
2023/10/20 06:53:09;;;;;;;4.50;3.87;;;;;;;;;;5054511;28;20439;-81
2023/10/20 06:55:35;;;;;;;4.60;3.60;;;;;;;;;;5053690;28;20981;-82
2023/10/20 06:58:02;;;;;;;6.27;4.20;;;;;;;;;;5053856;28;20479;-81
2023/10/20 07:00:29;;;;;;;6.83;3.70;;;;;;;;;;5052725;28;20506;-82
2023/10/20 07:02:55;;;;;;;4.80;4.27;;;;;;;;;;5056134;28;20446;-83
2023/10/20 07:05:23;;;;;;;3.67;3.30;;;;;;;;;;5054945;28;21003;-82
2023/10/20 07:07:50;;;;;;;4.60;4.20;;;;;;;;;;5054040;28;20495;-83
2023/10/20 07:10:17;;;;;;;5.30;3.90;;;;;;;;;;5053913;28;20440;-83
2023/10/20 07:12:44;;;;;;;4.20;3.00;;;;;;;;;;5055093;28;20440;-82
2023/10/20 07:15:10;;;;;;;3.43;3.13;;;;;;;;;;5054247;28;20513;-82
2023/10/20 07:17:37;;;;;;;4.20;2.97;;;;;;;;;;5054013;28;20483;-82
2023/10/20 07:20:05;;;;;;;5.23;4.37;;;;;;;;;;5053846;28;20956;-81
2023/10/20 07:22:33;;;;;;;4.60;3.53;;;;;;;;;;5053195;28;20468;-83
2023/10/20 07:25:00;;;;;;;3.73;3.43;;;;;;;;;;5052483;28;20455;-82
2023/10/20 07:27:26;;;;;;;4.67;3.57;;;;;;;;;;5053446;28;20464;-82
2023/10/20 07:29:53;;;;;;;4.37;3.00;;;;;;;;;;5053701;28;20455;-82
2023/10/20 07:32:19;;;;;;;3.90;3.23;;;;;;;;;;5054045;28;20468;-82
2023/10/20 07:34:46;;;;;;;3.83;3.20;;;;;;;;;;5053904;28;20467;-81
2023/10/20 07:37:12;;;;;;;7.37;2.40;;;;;;;;;;5052957;28;20502;-82
2023/10/20 07:39:40;;;;;;;3.30;3.00;;;;;;;;;;5053683;28;20960;-81
2023/10/20 07:42:06;;;;;;;4.83;3.60;;;;;;;;;;5053258;28;20472;-81
2023/10/20 07:44:33;;;;;;;3.80;3.23;;;;;;;;;;5053650;28;20459;-82
2023/10/20 07:47:00;;;;;;;4.13;3.23;;;;;;;;;;5053119;28;20476;-82
2023/10/20 07:49:26;;;;;;;3.43;3.03;;;;;;;;;;5053652;28;20508;-82
2023/10/20 07:51:53;;;;;;;3.27;2.83;;;;;;;;;;5051806;28;20464;-82
2023/10/20 07:54:20;;;;;;;5.40;3.43;;;;;;;;;;5053591;28;20462;-82
2023/10/20 07:56:48;;;;;;;7.00;4.20;;;;;;;;;;5053161;28;20533;-81
2023/10/20 07:59:17;;;;;;;4.00;3.20;;;;;;;;;;5052298;28;20440;-84
2023/10/20 08:01:44;;;;;;;2.70;2.50;;;;;;;;;;5053273;28;20482;-82
2023/10/20 08:04:10;;;;;;;5.13;3.50;;;;;;;;;;5053836;28;20985;-82
2023/10/20 08:06:37;;;;;;;3.70;3.30;;;;;;;;;;5053302;28;20464;-81
2023/10/20 08:09:04;;;;;;;4.30;3.47;;;;;;;;;;5055702;28;20527;-83
2023/10/20 08:11:31;;;;;;;2.43;2.13;;;;;;;;;;5055533;28;20468;-83
2023/10/20 08:13:59;;;;;;;2.60;2.40;;;;;;;;;;5056415;28;20456;-81
2023/10/20 08:16:25;;;;;;;3.57;2.60;;;;;;;;;;5055858;28;20529;-82
2023/10/20 08:18:52;;;;;;;4.20;2.70;;;;;;;;;;5055635;28;20490;-82
2023/10/20 08:21:19;;;;;;;4.03;2.43;;;;;;;;;;5054471;28;20891;-85
2023/10/20 08:23:45;;;;;;;4.00;2.50;;;;;;;;;;5055532;28;20463;-82
2023/10/20 08:26:15;;;;;;;4.23;2.83;;;;;;;;;;5055899;28;20467;-84
2023/10/20 08:28:42;;;;;;;2.30;2.10;;;;;;;;;;5054335;28;20435;-82
2023/10/20 08:31:13;;;;;;;2.37;2.17;;;;;;;;;;5055320;28;20841;-82
2023/10/20 08:33:39;;;;;;;3.23;2.53;;;;;;;;;;5057258;28;20547;-83
2023/10/20 08:36:15;;;;;;;3.27;2.40;;;;;;;;;;5056383;28;20539;-83
2023/10/20 08:38:42;;;;;;;2.70;1.90;;;;;;;;;;5056214;28;20479;-82
2023/10/20 08:41:09;;;;;;;2.47;2.03;;;;;;;;;;5054707;28;20482;-81
2023/10/20 08:43:35;;;;;;;4.07;2.60;;;;;;;;;;5055934;28;20464;-81
2023/10/20 08:46:02;;;;;;;2.27;1.90;;;;;;;;;;5056915;28;20478;-81
2023/10/20 08:48:31;;;;;;;2.10;2.00;;;;;;;;;;5055644;28;20455;-81
2023/10/20 08:50:57;;;;;;;3.50;2.03;;;;;;;;;;5054576;28;20468;-80
2023/10/20 08:53:25;;;;;;;2.73;1.90;;;;;;;;;;5055830;28;20812;-81
2023/10/20 08:55:51;;;;;;;2.40;2.20;;;;;;;;;;5055753;28;20464;-81
2023/10/20 08:58:18;;;;;;;2.40;2.10;;;;;;;;;;5054743;28;20853;-82
2023/10/20 09:00:44;;;;;;;4.10;2.13;;;;;;;;;;5052968;28;20463;-83
2023/10/20 09:03:11;;;;;;;3.17;2.07;;;;;;;;;;5053951;28;20436;-83
2023/10/20 09:05:39;;;;;;;2.40;2.20;;;;;;;;;;5053369;28;20513;-83
2023/10/20 09:08:05;;;;;;;2.33;2.13;;;;;;;;;;5053258;28;20463;-82
2023/10/20 09:10:32;;;;;;;2.37;2.10;;;;;;;;;;5052757;28;20467;-80
2023/10/20 09:12:58;;;;;;;2.00;1.80;;;;;;;;;;5055664;28;20444;-83
2023/10/20 09:15:24;;;;;;;2.63;2.43;;;;;;;;;;5055659;28;20521;-82
2023/10/20 09:17:54;;;;;;;2.80;2.30;;;;;;;;;;5057361;28;20491;-81
2023/10/20 09:20:21;;;;;;;3.90;2.43;;;;;;;;;;5056200;28;20447;-82
2023/10/20 09:22:49;;;;;;;5.00;2.53;;;;;;;;;;5057481;28;20447;-83
2023/10/20 09:25:15;;;;;;;3.20;2.40;;;;;;;;;;5056804;28;20456;-82
2023/10/20 09:27:42;;;;;;;3.27;2.53;;;;;;;;;;5057298;28;20443;-82
2023/10/20 09:30:10;;;;;;;2.57;2.33;;;;;;;;;;5055694;28;20440;-82
2023/10/20 09:32:37;;;;;;;3.00;2.20;;;;;;;;;;5057208;28;20446;-83
2023/10/20 09:35:03;;;;;;;3.43;2.27;;;;;;;;;;5056481;28;20985;-83
2023/10/20 09:37:30;;;;;;;3.30;2.30;;;;;;;;;;5056275;28;20479;-82
2023/10/20 09:40:05;;;;;;;2.90;2.60;;;;;;;;;;5057092;28;20782;-82
2023/10/20 09:42:33;;;;;;;3.40;2.60;;;;;;;;;;5057546;28;20520;-83
2023/10/20 09:45:06;;;;;;;4.40;2.87;;;;;;;;;;5057680;28;20456;-82
2023/10/20 09:47:34;;;;;;;4.30;3.50;;;;;;;;;;5056595;28;20836;-82
2023/10/20 09:50:00;;;;;;;5.67;3.17;;;;;;;;;;5058156;28;20428;-83
2023/10/20 09:52:29;;;;;;;5.00;3.20;;;;;;;;;;5056319;28;20476;-83
2023/10/20 09:54:55;;;;;;;2.80;2.40;;;;;;;;;;5057491;28;20503;-82
2023/10/20 09:57:23;;;;;;;3.17;2.87;;;;;;;;;;5056628;28;20476;-82
2023/10/20 09:59:52;;;;;;;6.13;3.27;;;;;;;;;;5039615;28;20523;-82
2023/10/20 10:02:26;;;;;;;2.87;2.60;;;;;;;;;;5055175;28;20955;-84
2023/10/20 10:04:53;;;;;;;3.70;3.10;;;;;;;;;;5054538;28;20459;-82
2023/10/20 10:07:27;;;;;;;4.97;2.90;;;;;;;;;;5055455;28;20609;-81
2023/10/20 10:09:55;;;;;;;3.40;2.87;;;;;;;;;;5055533;28;20420;-82
2023/10/20 10:12:24;;;;;;;4.10;3.00;;;;;;;;;;5057139;28;20985;-84
2023/10/20 10:14:54;;;;;;;3.13;2.80;;;;;;;;;;5055536;28;20452;-82
2023/10/20 10:17:22;;;;;;;3.57;3.27;;;;;;;;;;5055417;28;20476;-82
2023/10/20 10:19:50;;;;;;;5.87;3.57;;;;;;;;;;5055359;28;20432;-82
2023/10/20 10:22:16;;;;;;;3.40;3.03;;;;;;;;;;5053600;28;20471;-83
2023/10/20 10:24:48;;;;;;;4.97;3.17;;;;;;;;;;5054836;28;20467;-83
2023/10/20 10:27:17;;;;;;;4.40;3.10;;;;;;;;;;5055335;28;20482;-81
2023/10/20 10:29:49;;;;;;;3.80;3.40;;;;;;;;;;5055400;28;20948;-81
2023/10/20 10:32:17;;;;;;;6.13;3.40;;;;;;;;;;5054779;28;20890;-83
2023/10/20 10:34:44;;;;;;;3.37;2.87;;;;;;;;;;5055079;28;21036;-83
2023/10/20 10:37:10;;;;;;;4.63;3.13;;;;;;;;;;5054868;28;20479;-83
2023/10/20 10:39:37;;;;;;;4.93;3.60;;;;;;;;;;5055748;28;20479;-82
2023/10/20 10:42:04;;;;;;;3.00;2.80;;;;;;;;;;5054783;28;20830;-83
2023/10/20 10:44:31;;;;;;;4.60;3.47;;;;;;;;;;5055414;28;20464;-82
2023/10/20 10:47:00;;;;;;;3.23;3.03;;;;;;;;;;5053483;28;20483;-83
2023/10/20 10:49:27;;;;;;;4.57;3.07;;;;;;;;;;5057464;28;20425;-83
2023/10/20 10:51:53;;;;;;;4.40;3.17;;;;;;;;;;5055032;28;20560;-83
2023/10/20 10:54:19;;;;;;;4.30;3.20;;;;;;;;;;5055527;28;20510;-82
2023/10/20 10:56:46;;;;;;;2.73;2.53;;;;;;;;;;5055007;28;20468;-82
2023/10/20 10:59:12;;;;;;;3.27;2.97;;;;;;;;;;5056102;28;20475;-80
2023/10/20 11:01:40;;;;;;;3.30;2.73;;;;;;;;;;5054842;28;21020;-81
2023/10/20 11:04:09;;;;;;;3.40;2.90;;;;;;;;;;5055784;28;20463;-82
2023/10/20 11:06:37;;;;;;;4.50;3.37;;;;;;;;;;5053411;28;20552;-83
2023/10/20 11:09:06;;;;;;;3.70;3.20;;;;;;;;;;5055685;28;20431;-81
2023/10/20 11:11:37;;;;;;;3.50;2.97;;;;;;;;;;5053518;28;20829;-82
2023/10/20 11:14:04;;;;;;;4.20;3.23;;;;;;;;;;5055441;28;20467;-82
2023/10/20 11:16:31;;;;;;;3.20;2.90;;;;;;;;;;5053692;28;20473;-82
2023/10/20 11:18:57;;;;;;;4.00;2.87;;;;;;;;;;5055272;28;20495;-81
2023/10/20 11:21:25;;;;;;;3.10;2.80;;;;;;;;;;5054664;28;20506;-82
2023/10/20 11:23:51;;;;;;;4.23;2.60;;;;;;;;;;5056056;28;21035;-81
2023/10/20 11:26:18;;;;;;;3.57;3.10;;;;;;;;;;5054238;28;20487;-82
2023/10/20 11:28:45;;;;;;;3.00;2.30;;;;;;;;;;5053242;28;20444;-81
2023/10/20 11:31:12;;;;;;;3.27;3.00;;;;;;;;;;5054085;28;20989;-81
2023/10/20 11:33:38;;;;;;;6.53;2.90;;;;;;;;;;5053933;28;20492;-80
2023/10/20 11:36:05;;;;;;;4.63;3.10;;;;;;;;;;5053046;28;20468;-81
2023/10/20 11:38:33;;;;;;;4.83;3.10;;;;;;;;;;5053795;28;20845;-82
2023/10/20 11:41:00;;;;;;;2.90;2.63;;;;;;;;;;5053752;28;20467;-81
2023/10/20 11:43:26;;;;;;;3.20;2.90;;;;;;;;;;5052756;28;20513;-82
2023/10/20 11:45:53;;;;;;;3.47;2.70;;;;;;;;;;5053656;28;20468;-82
2023/10/20 11:48:19;;;;;;;2.77;2.50;;;;;;;;;;5053489;28;20494;-81
2023/10/20 11:50:46;;;;;;;3.50;2.70;;;;;;;;;;5053592;28;20459;-81
2023/10/20 11:53:13;;;;;;;3.63;2.70;;;;;;;;;;5053971;28;20502;-81
2023/10/20 11:55:41;;;;;;;3.87;2.90;;;;;;;;;;5052280;28;20475;-81
2023/10/20 11:58:07;;;;;;;4.27;2.90;;;;;;;;;;5054337;28;20512;-81
2023/10/20 12:00:36;;;;;;;5.60;2.60;;;;;;;;;;5053178;28;20837;-81
2023/10/20 12:03:04;;;;;;;5.33;2.70;;;;;;;;;;5053883;28;20448;-81
2023/10/20 12:05:33;;;;;;;5.77;3.43;;;;;;;;;;5053510;28;20471;-81
2023/10/20 12:08:00;;;;;;;3.20;2.47;;;;;;;;;;5053916;28;20455;-81
2023/10/20 12:10:27;;;;;;;4.70;2.20;;;;;;;;;;5053492;28;20539;-81
2023/10/20 12:12:54;;;;;;;4.00;2.40;;;;;;;;;;5052913;28;20522;-80
2023/10/20 12:15:21;;;;;;;2.40;2.17;;;;;;;;;;5052603;28;20467;-81
2023/10/20 12:17:47;;;;;;;2.50;2.10;;;;;;;;;;5053129;28;20934;-82
2023/10/20 12:20:15;;;;;;;2.20;2.00;;;;;;;;;;5052609;28;20436;-80
2023/10/20 12:22:42;;;;;;;2.87;2.17;;;;;;;;;;5052385;28;20524;-83
2023/10/20 12:25:09;;;;;;;2.63;2.37;;;;;;;;;;5055922;28;20466;-82
2023/10/20 12:27:37;;;;;;;2.07;1.97;;;;;;;;;;5052965;28;20864;-81
2023/10/20 12:30:06;;;;;;;2.43;1.87;;;;;;;;;;5052677;28;20420;-82
2023/10/20 12:32:32;;;;;;;2.63;2.40;;;;;;;;;;5052243;28;20845;-83
2023/10/20 12:34:59;;;;;;;2.47;2.20;;;;;;;;;;5053225;28;20468;-83
2023/10/20 12:37:25;;;;;;;2.17;2.00;;;;;;;;;;5051540;28;21016;-84
2023/10/20 12:39:52;;;;;;;2.20;2.00;;;;;;;;;;5053436;28;20483;-83
2023/10/20 12:42:18;;;;;;;2.00;1.53;;;;;;;;;;5053205;28;20600;-80
2023/10/20 12:44:45;;;;;;;2.47;2.20;;;;;;;;;;5053808;28;20852;-82
2023/10/20 12:47:13;;;;;;;2.40;1.93;;;;;;;;;;5054131;28;20468;-83
2023/10/20 12:49:40;;;;;;;1.97;1.77;;;;;;;;;;5057788;28;20448;-83
2023/10/20 12:52:07;;;;;;;2.77;2.20;;;;;;;;;;5057510;28;20543;-82
2023/10/20 12:54:34;;;;;;;2.47;2.13;;;;;;;;;;5057768;28;20471;-83
2023/10/20 12:57:00;;;;;;;2.37;2.13;;;;;;;;;;5057314;28;20964;-82
2023/10/20 12:59:27;;;;;;;2.00;1.80;;;;;;;;;;5056930;28;21083;-82
2023/10/20 13:01:53;;;;;;;1.70;1.60;;;;;;;;;;5057150;28;20463;-82
2023/10/20 13:04:21;;;;;;;3.10;2.03;;;;;;;;;;5057207;28;20459;-82
2023/10/20 13:06:48;;;;;;;2.40;2.20;;;;;;;;;;5056168;28;20468;-81
2023/10/20 13:09:14;;;;;;;2.37;2.17;;;;;;;;;;5055685;28;20436;-83
2023/10/20 13:11:41;;;;;;;1.93;1.73;;;;;;;;;;5057011;28;20468;-80
2023/10/20 13:14:08;;;;;;;2.20;1.93;;;;;;;;;;5057702;28;20466;-83
2023/10/20 13:16:34;;;;;;;5.40;2.37;;;;;;;;;;5056947;28;20472;-81
2023/10/20 13:19:00;;;;;;;3.00;2.70;;;;;;;;;;5056629;28;20486;-82
2023/10/20 13:21:30;;;;;;;2.53;1.97;;;;;;;;;;5056806;28;20474;-82
2023/10/20 13:23:57;;;;;;;2.20;2.00;;;;;;;;;;5057446;28;20834;-82
2023/10/20 13:26:23;;;;;;;2.47;1.87;;;;;;;;;;5056091;28;20474;-81
2023/10/20 13:28:50;;;;;;;2.40;2.20;;;;;;;;;;5055919;28;20956;-82
2023/10/20 13:31:21;;;;;;;2.17;2.00;;;;;;;;;;5055794;28;21032;-80
2023/10/20 13:33:47;;;;;;;2.00;1.80;;;;;;;;;;5056194;28;20563;-81
2023/10/20 13:36:14;;;;;;;2.33;1.87;;;;;;;;;;5055875;28;20466;-84
2023/10/20 13:38:43;;;;;;;2.13;1.93;;;;;;;;;;5054351;28;20475;-82
2023/10/20 13:41:09;;;;;;;2.70;2.07;;;;;;;;;;5055686;28;20472;-83
2023/10/20 13:43:35;;;;;;;2.30;2.10;;;;;;;;;;5055754;28;20474;-82
2023/10/20 13:46:02;;;;;;;2.30;2.10;;;;;;;;;;5055415;28;20471;-81
2023/10/20 13:48:29;;;;;;;1.83;1.73;;;;;;;;;;5055605;28;20808;-82
2023/10/20 13:50:55;;;;;;;2.40;1.67;;;;;;;;;;5054186;28;20470;-83
2023/10/20 13:53:24;;;;;;;2.70;2.50;;;;;;;;;;5055991;28;20439;-82
2023/10/20 13:55:52;;;;;;;2.10;1.63;;;;;;;;;;5055690;28;20471;-82
2023/10/20 13:58:18;;;;;;;2.20;2.10;;;;;;;;;;5055351;28;20440;-82
2023/10/20 14:00:45;;;;;;;2.80;2.07;;;;;;;;;;5054834;28;20537;-82
2023/10/20 14:03:12;;;;;;;1.97;1.70;;;;;;;;;;5056021;28;20442;-83
2023/10/20 14:05:40;;;;;;;2.70;2.50;;;;;;;;;;5055229;28;20468;-82
2023/10/20 14:08:07;;;;;;;2.73;2.13;;;;;;;;;;5054849;28;20961;-81
2023/10/20 14:10:35;;;;;;;1.70;1.60;;;;;;;;;;5055152;28;20468;-82
2023/10/20 14:13:02;;;;;;;4.37;2.13;;;;;;;;;;5055580;28;20447;-82
2023/10/20 14:15:29;;;;;;;2.30;2.13;;;;;;;;;;5054907;28;20816;-82
2023/10/20 14:17:56;;;;;;;2.13;2.03;;;;;;;;;;5054876;28;20436;-82
2023/10/20 14:20:22;;;;;;;2.20;2.00;;;;;;;;;;5054431;28;20503;-85
2023/10/20 14:22:49;;;;;;;3.40;2.63;;;;;;;;;;5055050;28;20443;-83
2023/10/20 14:25:17;;;;;;;7.27;4.93;;;;;;;;;;5054790;28;20510;-82
2023/10/20 14:27:43;;;;;;;4.60;2.67;;;;;;;;;;5055530;28;20440;-82
2023/10/20 14:30:11;;;;;;;4.53;4.03;;;;;;;;;;5055551;28;20811;-81
2023/10/20 14:32:38;;;;;;;4.20;2.30;;;;;;;;;;5054914;28;20458;-81
2023/10/20 14:35:04;;;;;;;2.37;1.97;;;;;;;;;;5054720;28;21004;-82
2023/10/20 14:37:31;;;;;;;5.40;3.93;;;;;;;;;;5055413;28;20471;-82
2023/10/20 14:39:57;;;;;;;2.13;2.00;;;;;;;;;;5055708;28;20490;-82
2023/10/20 14:42:24;;;;;;;1.47;1.30;;;;;;;;;;5055044;28;20463;-82
2023/10/20 14:44:50;;;;;;;2.03;1.77;;;;;;;;;;5054909;28;20463;-81
2023/10/20 14:47:19;;;;;;;2.13;1.93;;;;;;;;;;5055219;28;20472;-82
2023/10/20 14:49:45;;;;;;;2.93;2.73;;;;;;;;;;5055219;28;20447;-82
2023/10/20 14:52:12;;;;;;;2.40;2.20;;;;;;;;;;5054593;28;20840;-82
2023/10/20 14:54:38;;;;;;;1.60;1.50;;;;;;;;;;5054695;28;20961;-83
2023/10/20 14:57:06;;;;;;;1.77;1.67;;;;;;;;;;5053695;28;20509;-82
2023/10/20 14:59:33;;;;;;;4.07;3.50;;;;;;;;;;5054584;28;20939;-82